Terminal Aerodrome Forecast
Issued by NWS Cleveland, OH

Home | Current Version | Previous Version | Text Only | Print | Product List | Glossary On
Versions: 1 2 3 4 5 6 7 8 9 10 11 12 13 14 15 16 17
000
FTUS41 KCLE 140500 CCA
TAFMFD
TAF COR
KMFD 140554Z 1406/1506 00000KT P6SM SKC
     FM140800 00000KT 5SM BR BKN008 BKN120
     FM141400 22006KT P6SM SCT030 BKN120
     FM141800 22008KT P6SM BKN050
      TEMPO 1422/1424 3SM TSRA OVC035CB=

USA.gov is the U.S. government's official web portal to all federal, state and local government web resources and services.